createdAt,value
2018-09-19T00:03:00.000Z,99063
2018-09-19T00:08:00.000Z,99077
2018-09-19T00:13:00.000Z,99064
2018-09-19T00:18:00.000Z,99069
2018-09-19T00:23:00.000Z,99082
2018-09-19T00:28:00.000Z,99077
2018-09-19T00:33:00.000Z,99076
2018-09-19T00:38:00.000Z,99086
2018-09-19T00:43:00.000Z,99092
2018-09-19T00:48:00.000Z,99104
2018-09-19T00:53:00.000Z,99090
2018-09-19T00:58:00.000Z,99102
2018-09-19T01:03:00.000Z,99112
2018-09-19T01:08:00.000Z,99110
2018-09-19T01:13:00.000Z,99104
2018-09-19T01:18:00.000Z,99098
2018-09-19T01:23:00.000Z,99093
2018-09-19T01:28:00.000Z,99086
2018-09-19T01:33:00.000Z,99097
2018-09-19T01:38:00.000Z,99092
2018-09-19T01:43:00.000Z,99086
2018-09-19T01:48:00.000Z,99095
2018-09-19T01:53:00.000Z,99100
2018-09-19T01:58:00.000Z,99098
2018-09-19T02:03:00.000Z,99102
2018-09-19T02:08:00.000Z,99105
2018-09-19T02:13:00.000Z,99104
2018-09-19T02:18:00.000Z,99106
2018-09-19T02:23:00.000Z,99101
2018-09-19T02:28:00.000Z,99110
2018-09-19T02:33:00.000Z,99115
2018-09-19T02:38:00.000Z,99121
2018-09-19T02:43:00.000Z,99107
2018-09-19T02:48:00.000Z,99105
2018-09-19T02:53:00.000Z,99100
2018-09-19T02:58:00.000Z,99112
2018-09-19T03:03:00.000Z,99107
2018-09-19T03:08:00.000Z,99103
2018-09-19T03:13:00.000Z,99102
2018-09-19T03:18:00.000Z,99108
2018-09-19T03:23:00.000Z,99103
2018-09-19T03:28:00.000Z,99101
2018-09-19T03:33:00.000Z,99105
2018-09-19T03:38:00.000Z,99095
2018-09-19T03:43:00.000Z,99090
2018-09-19T03:48:00.000Z,99104
2018-09-19T03:53:00.000Z,99104
2018-09-19T03:58:00.000Z,99097
2018-09-19T04:03:00.000Z,99113
2018-09-19T04:08:00.000Z,99121
2018-09-19T04:13:00.000Z,99119
2018-09-19T04:18:00.000Z,99130
2018-09-19T04:23:00.000Z,99125
2018-09-19T04:28:00.000Z,99116
2018-09-19T04:33:00.000Z,99122
2018-09-19T04:38:00.000Z,99121
2018-09-19T04:43:00.000Z,99133
2018-09-19T04:48:00.000Z,99129
2018-09-19T04:53:00.000Z,99136
2018-09-19T04:58:00.000Z,99146
2018-09-19T05:03:00.000Z,99144
2018-09-19T05:08:00.000Z,99145
2018-09-19T05:14:00.000Z,99161
2018-09-19T05:19:00.000Z,99163
2018-09-19T05:24:00.000Z,99178
2018-09-19T05:29:00.000Z,99181
2018-09-19T05:34:00.000Z,99191
2018-09-19T05:39:00.000Z,99190
2018-09-19T05:44:00.000Z,99197
2018-09-19T05:49:00.000Z,99203
2018-09-19T05:54:00.000Z,99213
2018-09-19T05:59:00.000Z,99205
2018-09-19T06:04:00.000Z,99209
2018-09-19T06:09:00.000Z,99213
2018-09-19T06:14:00.000Z,99222
2018-09-19T06:19:00.000Z,99218
2018-09-19T06:24:00.000Z,99219
2018-09-19T06:29:00.000Z,99231
2018-09-19T06:34:00.000Z,99227
2018-09-19T06:39:00.000Z,99232
2018-09-19T06:44:00.000Z,99245
2018-09-19T06:49:00.000Z,99249
2018-09-19T06:54:00.000Z,99254
2018-09-19T06:59:00.000Z,99256
2018-09-19T07:04:00.000Z,99263
2018-09-19T07:09:00.000Z,99263
2018-09-19T07:14:00.000Z,99255
2018-09-19T07:19:00.000Z,99268
2018-09-19T07:24:00.000Z,99270
2018-09-19T07:29:00.000Z,99288
2018-09-19T07:34:00.000Z,99291
2018-09-19T07:39:00.000Z,99286
2018-09-19T07:44:00.000Z,99293
2018-09-19T07:49:00.000Z,99295
2018-09-19T07:54:00.000Z,99303
2018-09-19T07:59:00.000Z,99299
2018-09-19T08:04:00.000Z,99301
2018-09-19T08:09:00.000Z,99303
2018-09-19T08:14:00.000Z,99313
2018-09-19T08:19:00.000Z,99308
2018-09-19T08:24:00.000Z,99313
2018-09-19T08:29:00.000Z,99318
2018-09-19T08:34:00.000Z,99320
2018-09-19T08:39:00.000Z,99317
2018-09-19T08:44:00.000Z,99323
2018-09-19T08:49:00.000Z,99326
2018-09-19T08:54:00.000Z,99324
2018-09-19T08:59:00.000Z,99326
2018-09-19T09:04:00.000Z,99332
2018-09-19T09:09:00.000Z,99325
2018-09-19T09:14:00.000Z,99327
2018-09-19T09:19:00.000Z,99332
2018-09-19T09:24:00.000Z,99329
2018-09-19T09:29:00.000Z,99325
2018-09-19T09:34:00.000Z,99315
2018-09-19T09:39:00.000Z,99309
2018-09-19T09:44:00.000Z,99306
2018-09-19T09:49:00.000Z,99309
2018-09-19T09:54:00.000Z,99307
2018-09-19T09:59:00.000Z,99309
2018-09-19T10:04:00.000Z,99303
2018-09-19T10:09:00.000Z,99298
2018-09-19T10:14:00.000Z,99300
2018-09-19T10:19:00.000Z,99293
2018-09-19T10:24:00.000Z,99297
2018-09-19T10:29:00.000Z,99289
2018-09-19T10:34:00.000Z,99292
2018-09-19T10:39:00.000Z,99280
2018-09-19T10:44:00.000Z,99277
2018-09-19T10:49:00.000Z,99273
2018-09-19T10:54:00.000Z,99266
2018-09-19T10:59:00.000Z,99273
2018-09-19T11:04:00.000Z,99265
2018-09-19T11:09:00.000Z,99265
2018-09-19T11:15:00.000Z,99259
2018-09-19T11:20:00.000Z,99260
2018-09-19T11:25:00.000Z,99259
2018-09-19T11:30:00.000Z,99256
2018-09-19T11:35:00.000Z,99260
2018-09-19T11:40:00.000Z,99261
2018-09-19T11:45:00.000Z,99255
2018-09-19T11:50:00.000Z,99256
2018-09-19T11:55:00.000Z,99252
2018-09-19T12:00:00.000Z,99234
2018-09-19T12:05:00.000Z,99235
2018-09-19T12:10:00.000Z,99227
2018-09-19T12:15:00.000Z,99229
2018-09-19T12:20:00.000Z,99226
2018-09-19T12:25:00.000Z,99239
2018-09-19T12:30:00.000Z,99231
2018-09-19T12:35:00.000Z,99224
2018-09-19T12:40:00.000Z,99223
2018-09-19T12:45:00.000Z,99224
2018-09-19T12:50:00.000Z,99220
2018-09-19T12:55:00.000Z,99215
2018-09-19T13:00:00.000Z,99216
2018-09-19T13:05:00.000Z,99211
2018-09-19T13:10:00.000Z,99209
2018-09-19T13:15:00.000Z,99206
2018-09-19T13:20:00.000Z,99204
2018-09-19T13:25:00.000Z,99209
2018-09-19T13:30:00.000Z,99199
2018-09-19T13:35:00.000Z,99200
2018-09-19T13:40:00.000Z,99199
2018-09-19T13:45:00.000Z,99204
2018-09-19T13:50:00.000Z,99203
2018-09-19T13:55:00.000Z,99196
2018-09-19T14:00:00.000Z,99198
2018-09-19T14:05:00.000Z,99201
2018-09-19T14:10:00.000Z,99202
2018-09-19T14:15:00.000Z,99197
2018-09-19T14:20:00.000Z,99204
2018-09-19T14:25:00.000Z,99206
2018-09-19T14:30:00.000Z,99199
2018-09-19T14:35:00.000Z,99202
2018-09-19T14:40:00.000Z,99184
2018-09-19T14:45:00.000Z,99198
2018-09-19T14:50:00.000Z,99199
2018-09-19T14:55:00.000Z,99207
2018-09-19T15:00:00.000Z,99200
2018-09-19T15:05:00.000Z,99200
2018-09-19T15:10:00.000Z,99205
2018-09-19T15:15:00.000Z,99205
2018-09-19T15:20:00.000Z,99204
2018-09-19T15:25:00.000Z,99188
2018-09-19T15:30:00.000Z,99187
2018-09-19T15:35:00.000Z,99187
2018-09-19T15:40:00.000Z,99185
2018-09-19T15:45:00.000Z,99184
2018-09-19T15:50:00.000Z,99186
2018-09-19T15:55:00.000Z,99193
2018-09-19T16:00:00.000Z,99184
2018-09-19T16:05:00.000Z,99191
2018-09-19T16:10:00.000Z,99192
2018-09-19T16:15:00.000Z,99194
2018-09-19T16:20:00.000Z,99197
2018-09-19T16:25:00.000Z,99205
2018-09-19T16:30:00.000Z,99209
2018-09-19T16:35:00.000Z,99208
2018-09-19T16:40:00.000Z,99205
2018-09-19T16:45:00.000Z,99212
2018-09-19T16:50:00.000Z,99210
2018-09-19T16:55:00.000Z,99212
2018-09-19T17:00:00.000Z,99213
2018-09-19T17:05:00.000Z,99222
2018-09-19T17:10:00.000Z,99224
2018-09-19T17:16:00.000Z,99225
2018-09-19T17:21:00.000Z,99227
2018-09-19T17:26:00.000Z,99225
2018-09-19T17:31:00.000Z,99218
2018-09-19T17:36:00.000Z,99229
2018-09-19T17:41:00.000Z,99230
2018-09-19T17:46:00.000Z,99241
2018-09-19T17:51:00.000Z,99243
2018-09-19T17:56:00.000Z,99256
2018-09-19T18:01:00.000Z,99252
2018-09-19T18:06:00.000Z,99249
2018-09-19T18:11:00.000Z,99240
2018-09-19T18:16:00.000Z,99248
2018-09-19T18:21:00.000Z,99257
2018-09-19T18:26:00.000Z,99263
2018-09-19T18:31:00.000Z,99264
2018-09-19T18:36:00.000Z,99270
2018-09-19T18:41:00.000Z,99272
2018-09-19T18:46:00.000Z,99268
2018-09-19T18:51:00.000Z,99275
2018-09-19T18:56:00.000Z,99278
2018-09-19T19:01:00.000Z,99283
2018-09-19T19:06:00.000Z,99290
2018-09-19T19:11:00.000Z,99287
2018-09-19T19:16:00.000Z,99287
2018-09-19T19:21:00.000Z,99291
2018-09-19T19:26:00.000Z,99288
2018-09-19T19:31:00.000Z,99280
2018-09-19T19:36:00.000Z,99282
2018-09-19T19:41:00.000Z,99282
2018-09-19T19:46:00.000Z,99285
2018-09-19T19:51:00.000Z,99289
2018-09-19T19:56:00.000Z,99290
2018-09-19T20:01:00.000Z,99289
2018-09-19T20:06:00.000Z,99286
2018-09-19T20:11:00.000Z,99276
2018-09-19T20:16:00.000Z,99276
2018-09-19T20:21:00.000Z,99269
2018-09-19T20:26:00.000Z,99275
2018-09-19T20:31:00.000Z,99280
2018-09-19T20:36:00.000Z,99283
2018-09-19T20:41:00.000Z,99276
2018-09-19T20:46:00.000Z,99281
2018-09-19T20:51:00.000Z,99276
2018-09-19T20:56:00.000Z,99278
2018-09-19T21:01:00.000Z,99284
2018-09-19T21:06:00.000Z,99280
2018-09-19T21:11:00.000Z,99272
2018-09-19T21:16:00.000Z,99271
2018-09-19T21:21:00.000Z,99260
2018-09-19T21:26:00.000Z,99269
2018-09-19T21:31:00.000Z,99271
2018-09-19T21:36:00.000Z,99266
2018-09-19T21:41:00.000Z,99270
2018-09-19T21:46:00.000Z,99278
2018-09-19T21:51:00.000Z,99268
2018-09-19T21:56:00.000Z,99274
2018-09-19T22:01:00.000Z,99270
2018-09-19T22:06:00.000Z,99269
2018-09-19T22:11:00.000Z,99274
2018-09-19T22:16:00.000Z,99269
2018-09-19T22:21:00.000Z,99274
2018-09-19T22:26:00.000Z,99274
2018-09-19T22:31:00.000Z,99277
2018-09-19T22:36:00.000Z,99275
2018-09-19T22:41:00.000Z,99273
2018-09-19T22:46:00.000Z,99270
2018-09-19T22:51:00.000Z,99270
2018-09-19T22:56:00.000Z,99267
2018-09-19T23:01:00.000Z,99261
2018-09-19T23:07:00.000Z,99253
2018-09-19T23:12:00.000Z,99250
2018-09-19T23:17:00.000Z,99252
2018-09-19T23:22:00.000Z,99251
2018-09-19T23:27:00.000Z,99253
2018-09-19T23:32:00.000Z,99260
2018-09-19T23:37:00.000Z,99267
2018-09-19T23:42:00.000Z,99261
2018-09-19T23:47:00.000Z,99257
2018-09-19T23:52:00.000Z,99262
2018-09-19T23:57:00.000Z,99258
